sensor_id;sensor_type;location;lat;lon;timestamp;temperature;humidity
2907;DHT22;1463;51.070;16.998;2022-07-23T00:00:53;25.10;99.90
2907;DHT22;1463;51.070;16.998;2022-07-23T00:03:24;25.10;99.90
2907;DHT22;1463;51.070;16.998;2022-07-23T00:05:52;25.10;99.90
2907;DHT22;1463;51.070;16.998;2022-07-23T00:08:21;25.10;99.90
2907;DHT22;1463;51.070;16.998;2022-07-23T00:10:49;25.10;99.90
2907;DHT22;1463;51.070;16.998;2022-07-23T00:13:17;25.00;99.90
2907;DHT22;1463;51.070;16.998;2022-07-23T00:15:45;25.00;99.90
2907;DHT22;1463;51.070;16.998;2022-07-23T00:18:13;25.00;99.90
2907;DHT22;1463;51.070;16.998;2022-07-23T00:20:42;24.90;99.90
2907;DHT22;1463;51.070;16.998;2022-07-23T00:23:10;24.90;99.90
2907;DHT22;1463;51.070;16.998;2022-07-23T00:25:39;24.80;99.90
2907;DHT22;1463;51.070;16.998;2022-07-23T00:28:07;24.70;99.90
2907;DHT22;1463;51.070;16.998;2022-07-23T00:30:35;24.70;99.90
2907;DHT22;1463;51.070;16.998;2022-07-23T00:33:04;24.60;99.90
2907;DHT22;1463;51.070;16.998;2022-07-23T00:35:35;24.60;99.90
2907;DHT22;1463;51.070;16.998;2022-07-23T00:38:05;24.60;99.90
2907;DHT22;1463;51.070;16.998;2022-07-23T00:40:34;24.50;99.90
2907;DHT22;1463;51.070;16.998;2022-07-23T00:43:19;24.40;99.90
2907;DHT22;1463;51.070;16.998;2022-07-23T00:45:48;24.40;99.90
2907;DHT22;1463;51.070;16.998;2022-07-23T00:48:16;24.40;99.90
2907;DHT22;1463;51.070;16.998;2022-07-23T00:50:44;24.30;99.90
2907;DHT22;1463;51.070;16.998;2022-07-23T00:53:13;24.20;99.90
2907;DHT22;1463;51.070;16.998;2022-07-23T00:55:42;24.20;99.90
2907;DHT22;1463;51.070;16.998;2022-07-23T00:58:11;24.20;99.90
2907;DHT22;1463;51.070;16.998;2022-07-23T01:00:40;24.20;99.90
2907;DHT22;1463;51.070;16.998;2022-07-23T01:03:09;24.20;99.90
2907;DHT22;1463;51.070;16.998;2022-07-23T01:05:37;24.20;99.90
2907;DHT22;1463;51.070;16.998;2022-07-23T01:08:05;24.20;99.90
2907;DHT22;1463;51.070;16.998;2022-07-23T01:10:38;24.20;99.90
2907;DHT22;1463;51.070;16.998;2022-07-23T01:13:08;24.20;99.90
2907;DHT22;1463;51.070;16.998;2022-07-23T01:15:37;24.10;99.90
2907;DHT22;1463;51.070;16.998;2022-07-23T01:18:06;24.10;99.90
2907;DHT22;1463;51.070;16.998;2022-07-23T01:20:35;24.10;99.90
2907;DHT22;1463;51.070;16.998;2022-07-23T01:23:07;24.00;99.90
2907;DHT22;1463;51.070;16.998;2022-07-23T01:25:35;24.00;99.90
2907;DHT22;1463;51.070;16.998;2022-07-23T01:28:03;24.00;99.90
2907;DHT22;1463;51.070;16.998;2022-07-23T01:30:32;24.00;99.90
2907;DHT22;1463;51.070;16.998;2022-07-23T01:33:00;24.00;99.90
2907;DHT22;1463;51.070;16.998;2022-07-23T01:35:28;24.00;99.90
2907;DHT22;1463;51.070;16.998;2022-07-23T01:37:56;23.90;99.90
2907;DHT22;1463;51.070;16.998;2022-07-23T01:40:26;23.90;99.90
2907;DHT22;1463;51.070;16.998;2022-07-23T01:42:54;23.90;99.90
2907;DHT22;1463;51.070;16.998;2022-07-23T01:45:22;23.90;99.90
2907;DHT22;1463;51.070;16.998;2022-07-23T01:47:50;23.90;99.90
2907;DHT22;1463;51.070;16.998;2022-07-23T01:50:18;23.80;99.90
2907;DHT22;1463;51.070;16.998;2022-07-23T01:52:48;23.80;99.90
2907;DHT22;1463;51.070;16.998;2022-07-23T01:55:16;23.70;99.90
2907;DHT22;1463;51.070;16.998;2022-07-23T01:57:47;23.80;99.90
2907;DHT22;1463;51.070;16.998;2022-07-23T02:00:15;23.80;99.90
2907;DHT22;1463;51.070;16.998;2022-07-23T02:02:44;23.70;99.90
2907;DHT22;1463;51.070;16.998;2022-07-23T02:05:11;23.70;99.90
2907;DHT22;1463;51.070;16.998;2022-07-23T02:07:39;23.60;99.90
2907;DHT22;1463;51.070;16.998;2022-07-23T02:10:10;23.60;99.90
2907;DHT22;1463;51.070;16.998;2022-07-23T02:12:39;23.60;99.90
2907;DHT22;1463;51.070;16.998;2022-07-23T02:15:11;23.60;99.90
2907;DHT22;1463;51.070;16.998;2022-07-23T02:17:41;23.60;99.90
2907;DHT22;1463;51.070;16.998;2022-07-23T02:20:10;23.60;99.90
2907;DHT22;1463;51.070;16.998;2022-07-23T02:22:39;23.60;99.90
2907;DHT22;1463;51.070;16.998;2022-07-23T02:25:07;23.60;99.90
2907;DHT22;1463;51.070;16.998;2022-07-23T02:27:35;23.60;99.90
2907;DHT22;1463;51.070;16.998;2022-07-23T02:30:03;23.60;99.90
2907;DHT22;1463;51.070;16.998;2022-07-23T02:32:35;23.60;99.90
2907;DHT22;1463;51.070;16.998;2022-07-23T02:35:03;23.60;99.90
2907;DHT22;1463;51.070;16.998;2022-07-23T02:37:32;23.50;99.90
2907;DHT22;1463;51.070;16.998;2022-07-23T02:40:00;23.40;99.90
2907;DHT22;1463;51.070;16.998;2022-07-23T02:42:28;23.40;99.90
2907;DHT22;1463;51.070;16.998;2022-07-23T02:44:55;23.40;99.90
2907;DHT22;1463;51.070;16.998;2022-07-23T02:47:24;23.40;99.90
2907;DHT22;1463;51.070;16.998;2022-07-23T02:49:53;23.40;99.90
2907;DHT22;1463;51.070;16.998;2022-07-23T02:52:22;23.40;99.90
2907;DHT22;1463;51.070;16.998;2022-07-23T02:55:07;23.40;99.90
2907;DHT22;1463;51.070;16.998;2022-07-23T02:57:35;23.30;99.90
2907;DHT22;1463;51.070;16.998;2022-07-23T03:00:04;23.30;99.90
2907;DHT22;1463;51.070;16.998;2022-07-23T03:02:32;23.20;99.90
2907;DHT22;1463;51.070;16.998;2022-07-23T03:05:03;23.20;99.90
2907;DHT22;1463;51.070;16.998;2022-07-23T03:07:32;23.20;99.90
2907;DHT22;1463;51.070;16.998;2022-07-23T03:10:00;23.20;99.90
2907;DHT22;1463;51.070;16.998;2022-07-23T03:12:28;23.20;99.90
2907;DHT22;1463;51.070;16.998;2022-07-23T03:14:56;23.10;99.90
2907;DHT22;1463;51.070;16.998;2022-07-23T03:17:24;23.10;99.90
2907;DHT22;1463;51.070;16.998;2022-07-23T03:19:52;23.10;99.90
2907;DHT22;1463;51.070;16.998;2022-07-23T03:22:21;23.10;99.90
2907;DHT22;1463;51.070;16.998;2022-07-23T03:24:49;23.20;99.90
2907;DHT22;1463;51.070;16.998;2022-07-23T03:27:26;23.20;99.90
2907;DHT22;1463;51.070;16.998;2022-07-23T03:29:55;23.20;99.90
2907;DHT22;1463;51.070;16.998;2022-07-23T03:32:23;23.20;99.90
2907;DHT22;1463;51.070;16.998;2022-07-23T03:34:51;23.30;99.90
2907;DHT22;1463;51.070;16.998;2022-07-23T03:37:20;23.20;99.90
2907;DHT22;1463;51.070;16.998;2022-07-23T03:40:05;23.30;99.90
2907;DHT22;1463;51.070;16.998;2022-07-23T03:42:34;23.30;99.90
2907;DHT22;1463;51.070;16.998;2022-07-23T03:45:04;23.30;99.90
2907;DHT22;1463;51.070;16.998;2022-07-23T03:47:35;23.30;99.90
2907;DHT22;1463;51.070;16.998;2022-07-23T03:50:03;23.30;99.90
2907;DHT22;1463;51.070;16.998;2022-07-23T03:52:33;23.30;99.90
2907;DHT22;1463;51.070;16.998;2022-07-23T03:55:01;23.30;99.90
2907;DHT22;1463;51.070;16.998;2022-07-23T03:57:31;23.40;99.90
2907;DHT22;1463;51.070;16.998;2022-07-23T03:59:59;23.30;99.90
2907;DHT22;1463;51.070;16.998;2022-07-23T04:02:27;23.30;99.90
2907;DHT22;1463;51.070;16.998;2022-07-23T04:05:04;23.30;99.90
2907;DHT22;1463;51.070;16.998;2022-07-23T04:07:31;23.40;99.90
2907;DHT22;1463;51.070;16.998;2022-07-23T04:09:59;23.40;99.90
2907;DHT22;1463;51.070;16.998;2022-07-23T04:12:27;23.40;99.90
2907;DHT22;1463;51.070;16.998;2022-07-23T04:14:56;23.40;99.90
2907;DHT22;1463;51.070;16.998;2022-07-23T04:17:24;23.40;99.90
2907;DHT22;1463;51.070;16.998;2022-07-23T04:19:55;23.50;99.90
2907;DHT22;1463;51.070;16.998;2022-07-23T04:22:24;23.50;99.90
2907;DHT22;1463;51.070;16.998;2022-07-23T04:24:52;23.60;99.90
2907;DHT22;1463;51.070;16.998;2022-07-23T04:27:20;23.60;99.90
2907;DHT22;1463;51.070;16.998;2022-07-23T04:29:47;23.70;99.90
2907;DHT22;1463;51.070;16.998;2022-07-23T04:32:16;23.70;99.90
2907;DHT22;1463;51.070;16.998;2022-07-23T04:34:44;23.70;99.90
2907;DHT22;1463;51.070;16.998;2022-07-23T04:37:13;23.70;99.90
2907;DHT22;1463;51.070;16.998;2022-07-23T04:39:40;23.60;99.90
2907;DHT22;1463;51.070;16.998;2022-07-23T04:42:08;23.60;99.90
2907;DHT22;1463;51.070;16.998;2022-07-23T04:44:35;23.60;99.90
2907;DHT22;1463;51.070;16.998;2022-07-23T04:47:20;23.50;99.90
2907;DHT22;1463;51.070;16.998;2022-07-23T04:49:48;23.60;99.90
2907;DHT22;1463;51.070;16.998;2022-07-23T04:52:15;23.60;99.90
2907;DHT22;1463;51.070;16.998;2022-07-23T04:54:43;23.60;99.90
2907;DHT22;1463;51.070;16.998;2022-07-23T04:57:11;23.70;99.90
2907;DHT22;1463;51.070;16.998;2022-07-23T04:59:39;23.70;99.90
2907;DHT22;1463;51.070;16.998;2022-07-23T05:02:06;23.80;99.90
2907;DHT22;1463;51.070;16.998;2022-07-23T05:04:35;23.90;99.90
2907;DHT22;1463;51.070;16.998;2022-07-23T05:07:02;23.80;99.90
2907;DHT22;1463;51.070;16.998;2022-07-23T05:09:32;23.80;99.90
2907;DHT22;1463;51.070;16.998;2022-07-23T05:11:59;23.70;99.90
2907;DHT22;1463;51.070;16.998;2022-07-23T05:14:27;23.70;99.90
2907;DHT22;1463;51.070;16.998;2022-07-23T05:16:54;23.60;99.90
2907;DHT22;1463;51.070;16.998;2022-07-23T05:19:26;23.70;99.90
2907;DHT22;1463;51.070;16.998;2022-07-23T05:21:55;23.70;99.90
2907;DHT22;1463;51.070;16.998;2022-07-23T05:24:26;23.70;99.90
2907;DHT22;1463;51.070;16.998;2022-07-23T05:26:57;23.70;99.90
2907;DHT22;1463;51.070;16.998;2022-07-23T05:29:24;23.80;99.90
2907;DHT22;1463;51.070;16.998;2022-07-23T05:31:52;23.70;99.90
2907;DHT22;1463;51.070;16.998;2022-07-23T05:34:20;23.70;99.90
2907;DHT22;1463;51.070;16.998;2022-07-23T05:36:47;23.80;99.90
2907;DHT22;1463;51.070;16.998;2022-07-23T05:39:15;23.80;99.90
2907;DHT22;1463;51.070;16.998;2022-07-23T05:41:43;23.80;99.90
2907;DHT22;1463;51.070;16.998;2022-07-23T05:44:11;23.80;99.90
2907;DHT22;1463;51.070;16.998;2022-07-23T05:46:38;23.80;99.90
2907;DHT22;1463;51.070;16.998;2022-07-23T05:49:05;23.80;99.90
2907;DHT22;1463;51.070;16.998;2022-07-23T05:51:33;23.70;99.90
2907;DHT22;1463;51.070;16.998;2022-07-23T05:54:00;23.70;99.90
2907;DHT22;1463;51.070;16.998;2022-07-23T05:56:29;23.80;99.90
2907;DHT22;1463;51.070;16.998;2022-07-23T05:58:57;23.80;99.90
2907;DHT22;1463;51.070;16.998;2022-07-23T06:01:25;23.90;99.90
2907;DHT22;1463;51.070;16.998;2022-07-23T06:03:53;23.90;99.90
2907;DHT22;1463;51.070;16.998;2022-07-23T06:06:27;23.90;99.90
2907;DHT22;1463;51.070;16.998;2022-07-23T06:08:55;23.90;99.90
2907;DHT22;1463;51.070;16.998;2022-07-23T06:11:24;24.00;99.90
2907;DHT22;1463;51.070;16.998;2022-07-23T06:13:54;24.10;99.90
2907;DHT22;1463;51.070;16.998;2022-07-23T06:16:21;24.00;99.90
2907;DHT22;1463;51.070;16.998;2022-07-23T06:18:49;24.10;99.90
2907;DHT22;1463;51.070;16.998;2022-07-23T06:21:17;24.20;99.90
2907;DHT22;1463;51.070;16.998;2022-07-23T06:23:44;24.20;99.90
2907;DHT22;1463;51.070;16.998;2022-07-23T06:26:12;24.20;99.90
2907;DHT22;1463;51.070;16.998;2022-07-23T06:28:40;24.20;99.90
2907;DHT22;1463;51.070;16.998;2022-07-23T06:31:09;24.10;99.90
2907;DHT22;1463;51.070;16.998;2022-07-23T06:33:37;24.10;99.90
2907;DHT22;1463;51.070;16.998;2022-07-23T06:36:05;24.10;99.90
2907;DHT22;1463;51.070;16.998;2022-07-23T06:38:33;24.20;99.90
2907;DHT22;1463;51.070;16.998;2022-07-23T06:41:11;24.30;99.90
2907;DHT22;1463;51.070;16.998;2022-07-23T06:44:18;24.40;99.90
2907;DHT22;1463;51.070;16.998;2022-07-23T06:49:53;24.20;99.90
2907;DHT22;1463;51.070;16.998;2022-07-23T06:55:42;24.40;99.90
2907;DHT22;1463;51.070;16.998;2022-07-23T07:04:16;24.70;99.90
2907;DHT22;1463;51.070;16.998;2022-07-23T07:09:46;24.70;99.90
2907;DHT22;1463;51.070;16.998;2022-07-23T07:12:15;24.70;99.90
2907;DHT22;1463;51.070;16.998;2022-07-23T07:14:43;24.70;99.90
2907;DHT22;1463;51.070;16.998;2022-07-23T07:17:11;24.70;99.90
2907;DHT22;1463;51.070;16.998;2022-07-23T07:19:38;24.70;99.90
2907;DHT22;1463;51.070;16.998;2022-07-23T07:22:06;24.70;99.90
2907;DHT22;1463;51.070;16.998;2022-07-23T07:24:35;24.70;99.90
2907;DHT22;1463;51.070;16.998;2022-07-23T07:27:05;24.80;99.90
2907;DHT22;1463;51.070;16.998;2022-07-23T07:29:33;24.80;99.90
2907;DHT22;1463;51.070;16.998;2022-07-23T07:32:03;24.80;99.90
2907;DHT22;1463;51.070;16.998;2022-07-23T07:34:33;24.90;99.90
2907;DHT22;1463;51.070;16.998;2022-07-23T07:37:01;25.00;99.90
2907;DHT22;1463;51.070;16.998;2022-07-23T07:39:29;25.00;99.90
2907;DHT22;1463;51.070;16.998;2022-07-23T07:41:57;25.00;99.90
2907;DHT22;1463;51.070;16.998;2022-07-23T07:44:26;25.00;99.90
2907;DHT22;1463;51.070;16.998;2022-07-23T07:46:54;25.20;99.90
2907;DHT22;1463;51.070;16.998;2022-07-23T07:49:22;25.30;99.90
2907;DHT22;1463;51.070;16.998;2022-07-23T07:51:50;25.40;99.90
2907;DHT22;1463;51.070;16.998;2022-07-23T07:54:18;25.50;99.90
2907;DHT22;1463;51.070;16.998;2022-07-23T07:56:46;25.70;99.90
2907;DHT22;1463;51.070;16.998;2022-07-23T07:59:15;25.80;99.90
2907;DHT22;1463;51.070;16.998;2022-07-23T08:01:45;25.80;99.90
2907;DHT22;1463;51.070;16.998;2022-07-23T08:04:13;25.90;99.90
2907;DHT22;1463;51.070;16.998;2022-07-23T08:06:58;25.90;99.90
2907;DHT22;1463;51.070;16.998;2022-07-23T08:09:30;26.00;99.90
2907;DHT22;1463;51.070;16.998;2022-07-23T08:12:12;25.90;99.90
2907;DHT22;1463;51.070;16.998;2022-07-23T08:14:41;25.90;99.90
2907;DHT22;1463;51.070;16.998;2022-07-23T08:24:06;26.10;99.90
2907;DHT22;1463;51.070;16.998;2022-07-23T08:26:37;26.10;99.90
2907;DHT22;1463;51.070;16.998;2022-07-23T08:29:05;26.20;99.90
2907;DHT22;1463;51.070;16.998;2022-07-23T08:34:47;26.50;99.90
2907;DHT22;1463;51.070;16.998;2022-07-23T08:40:50;26.70;99.90
2907;DHT22;1463;51.070;16.998;2022-07-23T08:43:21;26.80;99.90
2907;DHT22;1463;51.070;16.998;2022-07-23T08:45:54;26.80;99.90
2907;DHT22;1463;51.070;16.998;2022-07-23T08:48:24;26.90;99.90
2907;DHT22;1463;51.070;16.998;2022-07-23T08:51:00;27.00;99.90
2907;DHT22;1463;51.070;16.998;2022-07-23T08:53:29;27.10;99.90
2907;DHT22;1463;51.070;16.998;2022-07-23T08:58:58;27.20;99.90
2907;DHT22;1463;51.070;16.998;2022-07-23T09:01:26;27.30;99.90
2907;DHT22;1463;51.070;16.998;2022-07-23T09:07:14;27.20;99.90
2907;DHT22;1463;51.070;16.998;2022-07-23T09:10:06;27.30;99.90
2907;DHT22;1463;51.070;16.998;2022-07-23T09:12:35;27.40;99.90
2907;DHT22;1463;51.070;16.998;2022-07-23T09:30:32;27.80;99.90
2907;DHT22;1463;51.070;16.998;2022-07-23T09:33:06;27.80;99.90
2907;DHT22;1463;51.070;16.998;2022-07-23T09:35:44;27.90;99.90
2907;DHT22;1463;51.070;16.998;2022-07-23T09:38:13;27.90;99.90
2907;DHT22;1463;51.070;16.998;2022-07-23T09:40:40;27.90;99.90
2907;DHT22;1463;51.070;16.998;2022-07-23T09:43:07;27.90;99.90
2907;DHT22;1463;51.070;16.998;2022-07-23T09:45:37;27.90;99.90
2907;DHT22;1463;51.070;16.998;2022-07-23T09:48:15;28.00;99.90
2907;DHT22;1463;51.070;16.998;2022-07-23T09:50:43;28.00;99.90
2907;DHT22;1463;51.070;16.998;2022-07-23T09:53:26;28.00;99.90
2907;DHT22;1463;51.070;16.998;2022-07-23T09:55:54;28.00;99.90
2907;DHT22;1463;51.070;16.998;2022-07-23T09:58:27;28.00;99.90
2907;DHT22;1463;51.070;16.998;2022-07-23T10:01:04;28.00;99.90
2907;DHT22;1463;51.070;16.998;2022-07-23T10:03:32;28.00;99.90
2907;DHT22;1463;51.070;16.998;2022-07-23T10:06:00;27.90;99.90
2907;DHT22;1463;51.070;16.998;2022-07-23T10:08:31;27.90;99.90
2907;DHT22;1463;51.070;16.998;2022-07-23T10:11:00;27.80;99.90
2907;DHT22;1463;51.070;16.998;2022-07-23T10:13:29;27.70;99.90
2907;DHT22;1463;51.070;16.998;2022-07-23T10:16:16;27.60;99.90
2907;DHT22;1463;51.070;16.998;2022-07-23T10:18:44;27.40;99.90
2907;DHT22;1463;51.070;16.998;2022-07-23T10:21:12;27.30;99.90
2907;DHT22;1463;51.070;16.998;2022-07-23T10:23:45;27.30;99.90
2907;DHT22;1463;51.070;16.998;2022-07-23T10:26:17;27.30;99.90
2907;DHT22;1463;51.070;16.998;2022-07-23T10:28:48;27.30;99.90
2907;DHT22;1463;51.070;16.998;2022-07-23T10:31:28;27.30;99.90
2907;DHT22;1463;51.070;16.998;2022-07-23T10:33:59;27.20;99.90
2907;DHT22;1463;51.070;16.998;2022-07-23T10:36:38;27.00;99.90
2907;DHT22;1463;51.070;16.998;2022-07-23T10:39:08;26.90;99.90
2907;DHT22;1463;51.070;16.998;2022-07-23T10:41:39;26.80;99.90
2907;DHT22;1463;51.070;16.998;2022-07-23T10:44:08;26.80;99.90
2907;DHT22;1463;51.070;16.998;2022-07-23T10:46:37;26.70;99.90
2907;DHT22;1463;51.070;16.998;2022-07-23T10:49:25;26.60;99.90
2907;DHT22;1463;51.070;16.998;2022-07-23T10:54:39;26.40;99.90
2907;DHT22;1463;51.070;16.998;2022-07-23T10:57:09;26.40;99.90
2907;DHT22;1463;51.070;16.998;2022-07-23T11:02:45;26.30;99.90
2907;DHT22;1463;51.070;16.998;2022-07-23T11:05:15;26.10;99.90
2907;DHT22;1463;51.070;16.998;2022-07-23T11:10:33;25.80;99.90
2907;DHT22;1463;51.070;16.998;2022-07-23T11:33:39;25.10;99.90
2907;DHT22;1463;51.070;16.998;2022-07-23T11:54:46;25.00;99.90
2907;DHT22;1463;51.070;16.998;2022-07-23T11:57:14;24.90;99.90
2907;DHT22;1463;51.070;16.998;2022-07-23T11:59:41;24.90;99.90
2907;DHT22;1463;51.070;16.998;2022-07-23T12:02:09;24.90;99.90
2907;DHT22;1463;51.070;16.998;2022-07-23T12:04:41;25.00;99.90
2907;DHT22;1463;51.070;16.998;2022-07-23T12:10:16;25.00;99.90
2907;DHT22;1463;51.070;16.998;2022-07-23T12:15:49;25.20;99.90
2907;DHT22;1463;51.070;16.998;2022-07-23T12:18:21;25.30;99.90
2907;DHT22;1463;51.070;16.998;2022-07-23T12:21:03;25.30;99.90
2907;DHT22;1463;51.070;16.998;2022-07-23T12:23:30;25.50;99.90
2907;DHT22;1463;51.070;16.998;2022-07-23T12:26:00;25.60;99.90
2907;DHT22;1463;51.070;16.998;2022-07-23T12:28:28;25.80;99.90
2907;DHT22;1463;51.070;16.998;2022-07-23T12:30:56;25.90;99.90
2907;DHT22;1463;51.070;16.998;2022-07-23T12:33:24;26.10;99.90
2907;DHT22;1463;51.070;16.998;2022-07-23T12:35:52;26.30;99.90
2907;DHT22;1463;51.070;16.998;2022-07-23T12:38:20;26.50;99.90
2907;DHT22;1463;51.070;16.998;2022-07-23T12:40:48;26.60;99.90
2907;DHT22;1463;51.070;16.998;2022-07-23T12:43:20;26.80;99.90
2907;DHT22;1463;51.070;16.998;2022-07-23T12:45:49;27.00;99.90
2907;DHT22;1463;51.070;16.998;2022-07-23T12:48:17;27.10;99.90
2907;DHT22;1463;51.070;16.998;2022-07-23T12:50:48;27.30;99.90
2907;DHT22;1463;51.070;16.998;2022-07-23T13:02:10;27.50;99.90
2907;DHT22;1463;51.070;16.998;2022-07-23T13:04:38;27.60;99.90
2907;DHT22;1463;51.070;16.998;2022-07-23T13:07:19;27.70;99.90
2907;DHT22;1463;51.070;16.998;2022-07-23T13:09:48;27.80;99.90
2907;DHT22;1463;51.070;16.998;2022-07-23T13:12:15;27.90;99.90
2907;DHT22;1463;51.070;16.998;2022-07-23T13:20:56;28.30;99.90
2907;DHT22;1463;51.070;16.998;2022-07-23T13:23:23;28.30;99.90
2907;DHT22;1463;51.070;16.998;2022-07-23T13:25:50;28.40;99.90
2907;DHT22;1463;51.070;16.998;2022-07-23T13:28:18;28.40;99.90
2907;DHT22;1463;51.070;16.998;2022-07-23T13:30:46;28.40;99.90
2907;DHT22;1463;51.070;16.998;2022-07-23T13:33:15;28.40;99.90
2907;DHT22;1463;51.070;16.998;2022-07-23T13:35:42;28.40;99.90
2907;DHT22;1463;51.070;16.998;2022-07-23T13:38:11;28.30;99.90
2907;DHT22;1463;51.070;16.998;2022-07-23T13:40:40;28.30;99.90
2907;DHT22;1463;51.070;16.998;2022-07-23T13:43:09;28.30;99.90
2907;DHT22;1463;51.070;16.998;2022-07-23T13:45:36;28.10;99.90
2907;DHT22;1463;51.070;16.998;2022-07-23T13:48:04;28.10;99.90
2907;DHT22;1463;51.070;16.998;2022-07-23T13:50:31;28.10;99.90
2907;DHT22;1463;51.070;16.998;2022-07-23T13:53:00;28.10;99.90
2907;DHT22;1463;51.070;16.998;2022-07-23T13:55:29;28.00;99.90
2907;DHT22;1463;51.070;16.998;2022-07-23T13:57:57;28.00;99.90
2907;DHT22;1463;51.070;16.998;2022-07-23T14:00:24;28.10;99.90
2907;DHT22;1463;51.070;16.998;2022-07-23T14:02:52;28.20;99.90
2907;DHT22;1463;51.070;16.998;2022-07-23T14:05:19;28.30;99.90
2907;DHT22;1463;51.070;16.998;2022-07-23T14:07:46;28.30;99.90
2907;DHT22;1463;51.070;16.998;2022-07-23T14:10:15;28.40;99.90
2907;DHT22;1463;51.070;16.998;2022-07-23T14:12:44;28.40;99.90
2907;DHT22;1463;51.070;16.998;2022-07-23T14:15:12;28.30;99.90
2907;DHT22;1463;51.070;16.998;2022-07-23T14:17:40;28.40;99.90
2907;DHT22;1463;51.070;16.998;2022-07-23T14:20:07;28.30;99.90
2907;DHT22;1463;51.070;16.998;2022-07-23T14:22:35;28.30;99.90
2907;DHT22;1463;51.070;16.998;2022-07-23T14:25:04;28.30;99.90
2907;DHT22;1463;51.070;16.998;2022-07-23T14:27:31;28.20;99.90
2907;DHT22;1463;51.070;16.998;2022-07-23T14:30:00;28.20;99.90
2907;DHT22;1463;51.070;16.998;2022-07-23T14:32:27;28.10;99.90
2907;DHT22;1463;51.070;16.998;2022-07-23T14:34:54;28.10;99.90
2907;DHT22;1463;51.070;16.998;2022-07-23T14:37:22;28.10;99.90
2907;DHT22;1463;51.070;16.998;2022-07-23T14:39:50;28.00;99.90
2907;DHT22;1463;51.070;16.998;2022-07-23T14:42:18;28.00;99.90
2907;DHT22;1463;51.070;16.998;2022-07-23T14:44:46;28.00;99.90
2907;DHT22;1463;51.070;16.998;2022-07-23T14:47:15;28.00;99.90
2907;DHT22;1463;51.070;16.998;2022-07-23T14:49:42;27.90;99.90
2907;DHT22;1463;51.070;16.998;2022-07-23T14:52:09;27.90;99.90
2907;DHT22;1463;51.070;16.998;2022-07-23T14:54:36;27.80;99.90
2907;DHT22;1463;51.070;16.998;2022-07-23T14:57:04;27.80;99.90
2907;DHT22;1463;51.070;16.998;2022-07-23T14:59:33;27.70;99.90
2907;DHT22;1463;51.070;16.998;2022-07-23T15:02:00;27.70;99.90
2907;DHT22;1463;51.070;16.998;2022-07-23T15:04:29;27.70;99.90
2907;DHT22;1463;51.070;16.998;2022-07-23T15:06:57;27.60;99.90
2907;DHT22;1463;51.070;16.998;2022-07-23T15:09:24;27.50;99.90
2907;DHT22;1463;51.070;16.998;2022-07-23T15:11:51;27.50;99.90
2907;DHT22;1463;51.070;16.998;2022-07-23T15:14:18;27.50;99.90
2907;DHT22;1463;51.070;16.998;2022-07-23T15:16:45;27.50;99.90
2907;DHT22;1463;51.070;16.998;2022-07-23T15:19:13;27.40;99.90
2907;DHT22;1463;51.070;16.998;2022-07-23T15:21:41;27.40;99.90
2907;DHT22;1463;51.070;16.998;2022-07-23T15:24:08;27.40;99.90
2907;DHT22;1463;51.070;16.998;2022-07-23T15:26:36;27.30;99.90
2907;DHT22;1463;51.070;16.998;2022-07-23T15:29:03;27.40;99.90
2907;DHT22;1463;51.070;16.998;2022-07-23T15:31:31;27.40;99.90
2907;DHT22;1463;51.070;16.998;2022-07-23T15:33:59;27.40;99.90
2907;DHT22;1463;51.070;16.998;2022-07-23T15:36:26;27.50;99.90
2907;DHT22;1463;51.070;16.998;2022-07-23T15:38:55;27.50;99.90
2907;DHT22;1463;51.070;16.998;2022-07-23T15:41:22;27.60;99.90
2907;DHT22;1463;51.070;16.998;2022-07-23T15:43:50;27.50;99.90
2907;DHT22;1463;51.070;16.998;2022-07-23T15:46:17;27.40;99.90
2907;DHT22;1463;51.070;16.998;2022-07-23T15:48:44;27.40;99.90
2907;DHT22;1463;51.070;16.998;2022-07-23T15:51:11;27.40;99.90
2907;DHT22;1463;51.070;16.998;2022-07-23T15:53:39;27.40;99.90
2907;DHT22;1463;51.070;16.998;2022-07-23T15:56:08;27.40;99.90
2907;DHT22;1463;51.070;16.998;2022-07-23T15:58:36;27.40;99.90
2907;DHT22;1463;51.070;16.998;2022-07-23T16:01:03;27.30;99.90
2907;DHT22;1463;51.070;16.998;2022-07-23T16:03:32;27.20;99.90
2907;DHT22;1463;51.070;16.998;2022-07-23T16:05:59;27.20;99.90
2907;DHT22;1463;51.070;16.998;2022-07-23T16:08:26;27.10;99.90
2907;DHT22;1463;51.070;16.998;2022-07-23T16:10:54;27.10;99.90
2907;DHT22;1463;51.070;16.998;2022-07-23T16:13:24;27.10;99.90
2907;DHT22;1463;51.070;16.998;2022-07-23T16:15:51;27.10;99.90
2907;DHT22;1463;51.070;16.998;2022-07-23T16:18:19;27.00;99.90
2907;DHT22;1463;51.070;16.998;2022-07-23T16:20:47;27.00;99.90
2907;DHT22;1463;51.070;16.998;2022-07-23T16:23:15;27.00;99.90
2907;DHT22;1463;51.070;16.998;2022-07-23T16:25:42;27.00;99.90
2907;DHT22;1463;51.070;16.998;2022-07-23T16:28:09;27.00;99.90
2907;DHT22;1463;51.070;16.998;2022-07-23T16:30:39;27.00;99.90
2907;DHT22;1463;51.070;16.998;2022-07-23T16:33:06;27.10;99.90
2907;DHT22;1463;51.070;16.998;2022-07-23T16:35:34;27.10;99.90
2907;DHT22;1463;51.070;16.998;2022-07-23T16:38:01;27.20;99.90
2907;DHT22;1463;51.070;16.998;2022-07-23T16:40:29;27.20;99.90
2907;DHT22;1463;51.070;16.998;2022-07-23T16:42:56;27.30;99.90
2907;DHT22;1463;51.070;16.998;2022-07-23T16:45:24;27.30;99.90
2907;DHT22;1463;51.070;16.998;2022-07-23T16:47:53;27.40;99.90
2907;DHT22;1463;51.070;16.998;2022-07-23T16:50:20;27.30;99.90
2907;DHT22;1463;51.070;16.998;2022-07-23T16:52:47;27.30;99.90
2907;DHT22;1463;51.070;16.998;2022-07-23T16:55:15;27.30;99.90
2907;DHT22;1463;51.070;16.998;2022-07-23T16:57:42;27.30;99.90
2907;DHT22;1463;51.070;16.998;2022-07-23T17:00:10;27.20;99.90
2907;DHT22;1463;51.070;16.998;2022-07-23T17:02:37;27.30;99.90
2907;DHT22;1463;51.070;16.998;2022-07-23T17:05:06;27.30;99.90
2907;DHT22;1463;51.070;16.998;2022-07-23T17:07:34;27.20;99.90
2907;DHT22;1463;51.070;16.998;2022-07-23T17:10:01;27.20;99.90
2907;DHT22;1463;51.070;16.998;2022-07-23T17:12:29;27.30;99.90
2907;DHT22;1463;51.070;16.998;2022-07-23T17:14:56;27.30;99.90
2907;DHT22;1463;51.070;16.998;2022-07-23T17:17:23;27.30;99.90
2907;DHT22;1463;51.070;16.998;2022-07-23T17:19:50;27.30;99.90
2907;DHT22;1463;51.070;16.998;2022-07-23T17:22:22;27.30;99.90
2907;DHT22;1463;51.070;16.998;2022-07-23T17:24:49;27.40;99.90
2907;DHT22;1463;51.070;16.998;2022-07-23T17:27:16;27.30;99.90
2907;DHT22;1463;51.070;16.998;2022-07-23T17:29:44;27.20;99.90
2907;DHT22;1463;51.070;16.998;2022-07-23T17:32:13;27.20;99.90
2907;DHT22;1463;51.070;16.998;2022-07-23T17:34:42;27.10;99.90
2907;DHT22;1463;51.070;16.998;2022-07-23T17:37:12;27.00;99.90
2907;DHT22;1463;51.070;16.998;2022-07-23T17:39:43;27.00;99.90
2907;DHT22;1463;51.070;16.998;2022-07-23T17:42:10;26.90;99.90
2907;DHT22;1463;51.070;16.998;2022-07-23T17:44:39;26.80;99.90
2907;DHT22;1463;51.070;16.998;2022-07-23T17:47:06;26.80;99.90
2907;DHT22;1463;51.070;16.998;2022-07-23T17:49:33;26.70;99.90
2907;DHT22;1463;51.070;16.998;2022-07-23T17:52:01;26.70;99.90
2907;DHT22;1463;51.070;16.998;2022-07-23T17:54:29;26.60;99.90
2907;DHT22;1463;51.070;16.998;2022-07-23T17:56:58;26.60;99.90